PWSweather.com
Personal Weather Stations
Station Observations
KGAROSWE1
Roswell (historic Mill Village), Roswell, GA 30075

Roswell (historic Mill Village)Roswell, GA 30075

Lat: 34.014545, Lon: -84.358498

Elevation: 1025

Station Type: Davis Vantage Vue

http://www.roswellweather.net

Latest ConditionsUpdated 9:08:07 AM EDT Saturday, Jul 21, 2018
Currently Today's Max Today's Min Today's Average
Temperature 70.1°F21.2°C 75.0°F23.9°C 66.9°F19.4°C 70.7°F21.5°C
Dew Point 68.9°F20.5°C 70.5°F21.4°C 65.7°F18.7°C 69.0°F20.6°C
Winds Calm Calm 7.0 mph -11.3 kmh - - 0.3 mph 0.5 kmh
Wind Gusts 1.0 mph1.6 kmh 15.0 mph24.1 kmh - -
Humidity 96% 99% 83% 94%
Pressure 29.88 in1011.9 mb 29.92 in1013.2 mb 29.78 in1008.5 mb -
Hour Temp Dew Point Humidity Winds Wind Gusts Pressure Precip Precip Rate Daily Precip Total
09:08 AM 70.1°F21.2°C 68.9°F20.5°C 96% Calm Calm 1.0 mph1.6 kmh 29.88 in1011.9 mb 0.01 in0.3 mm 0.00 in0.0 mm 1.10 in27.9 mm
09:06 AM 70.1°F21.2°C 69.2°F20.7°C 97% 3.0 mph SW4.8 kmh SW 4.0 mph6.4 kmh 29.89 in1012.2 mb 0.01 in0.3 mm 0.00 in0.0 mm 1.10 in27.9 mm
09:04 AM 69.9°F21.1°C 69.0°F20.6°C 97% Calm Calm 2.0 mph3.2 kmh 29.89 in1012.2 mb 0.01 in0.3 mm 0.00 in0.0 mm 1.10 in27.9 mm
09:02 AM 69.8°F21.0°C 68.9°F20.5°C 97% Calm Calm 2.0 mph3.2 kmh 29.89 in1012.2 mb 0.01 in0.3 mm 0.00 in0.0 mm 1.10 in27.9 mm
09:00 AM 69.9°F21.1°C 69.3°F20.7°C 98% 1.0 mph SSW1.6 kmh SSW 2.0 mph3.2 kmh 29.89 in1012.2 mb 0.01 in0.3 mm 0.00 in0.0 mm 1.10 in27.9 mm
08:58 AM 70.0°F21.1°C 69.4°F20.8°C 98% Calm Calm 1.0 mph1.6 kmh 29.89 in1012.2 mb 0.01 in0.3 mm 0.00 in0.0 mm 1.10 in27.9 mm
08:56 AM 69.9°F21.1°C 69.3°F20.7°C 98% Calm Calm -- 29.89 in1012.2 mb 0.01 in0.3 mm 0.00 in0.0 mm 1.10 in27.9 mm
08:54 AM 69.7°F20.9°C 69.4°F20.8°C 99% Calm Calm -- 29.89 in1012.2 mb 0.01 in0.3 mm 0.00 in0.0 mm 1.10 in27.9 mm
08:52 AM 69.7°F20.9°C 69.4°F20.8°C 99% Calm Calm 3.0 mph4.8 kmh 29.89 in1012.2 mb 0.01 in0.3 mm 0.00 in0.0 mm 1.10 in27.9 mm
08:50 AM 69.5°F20.8°C 69.2°F20.7°C 99% Calm Calm 3.0 mph4.8 kmh 29.89 in1012.2 mb 0.01 in0.3 mm 0.00 in0.0 mm 1.10 in27.9 mm
08:48 AM 69.4°F20.8°C 69.1°F20.6°C 99% Calm Calm -- 29.90 in1012.5 mb 0.01 in0.3 mm 0.00 in0.0 mm 1.10 in27.9 mm
08:46 AM 69.0°F20.6°C 68.7°F20.4°C 99% Calm Calm -- 29.90 in1012.5 mb 0.01 in0.3 mm 0.00 in0.0 mm 1.10 in27.9 mm
08:44 AM 68.6°F20.3°C 68.0°F20.0°C 98% Calm Calm -- 29.90 in1012.5 mb 0.01 in0.3 mm 0.00 in0.0 mm 1.10 in27.9 mm
08:42 AM 68.0°F20.0°C 67.4°F19.7°C 98% Calm Calm -- 29.90 in1012.5 mb 0.01 in0.3 mm 0.00 in0.0 mm 1.10 in27.9 mm
08:40 AM 67.9°F19.9°C 67.3°F19.6°C 98% Calm Calm -- 29.90 in1012.5 mb 0.01 in0.3 mm 0.00 in0.0 mm 1.10 in27.9 mm
08:38 AM 67.8°F19.9°C 67.2°F19.6°C 98% Calm Calm -- 29.90 in1012.5 mb 0.01 in0.3 mm 0.00 in0.0 mm 1.10 in27.9 mm
08:36 AM 67.7°F19.8°C 67.1°F19.5°C 98% Calm Calm 2.0 mph3.2 kmh 29.90 in1012.5 mb 0.01 in0.3 mm 0.00 in0.0 mm 1.10 in27.9 mm
08:34 AM 67.7°F19.8°C 67.1°F19.5°C 98% 1.0 mph SW1.6 kmh SW 2.0 mph3.2 kmh 29.89 in1012.2 mb 0.01 in0.3 mm 0.00 in0.0 mm 1.10 in27.9 mm
08:32 AM 67.6°F19.8°C 67.0°F19.4°C 98% Calm Calm 2.0 mph3.2 kmh 29.89 in1012.2 mb 0.01 in0.3 mm 0.00 in0.0 mm 1.10 in27.9 mm
08:30 AM 67.5°F19.7°C 66.9°F19.4°C 98% Calm Calm 2.0 mph3.2 kmh 29.89 in1012.2 mb 0.01 in0.3 mm 0.00 in0.0 mm 1.10 in27.9 mm
08:28 AM 67.5°F19.7°C 66.9°F19.4°C 98% Calm Calm 2.0 mph3.2 kmh 29.89 in1012.2 mb 0.01 in0.3 mm 0.00 in0.0 mm 1.10 in27.9 mm
08:26 AM 67.5°F19.7°C 66.9°F19.4°C 98% Calm Calm 5.0 mph8.0 kmh 29.89 in1012.2 mb 0.02 in0.5 mm 0.00 in0.0 mm 1.10 in27.9 mm
08:24 AM 67.5°F19.7°C 66.9°F19.4°C 98% Calm Calm 5.0 mph8.0 kmh 29.88 in1011.9 mb 0.02 in0.5 mm 0.00 in0.0 mm 1.10 in27.9 mm
08:22 AM 67.6°F19.8°C 67.0°F19.4°C 98% 2.0 mph E3.2 kmh E 3.0 mph4.8 kmh 29.86 in1011.2 mb 0.02 in0.5 mm 0.00 in0.0 mm 1.10 in27.9 mm
08:20 AM 67.6°F19.8°C 67.0°F19.4°C 98% 1.0 mph ESE1.6 kmh ESE 3.0 mph4.8 kmh 29.86 in1011.2 mb 0.02 in0.5 mm 0.00 in0.0 mm 1.10 in27.9 mm
08:18 AM 67.7°F19.8°C 67.1°F19.5°C 98% Calm Calm -- 29.90 in1012.5 mb 0.02 in0.5 mm 0.30 in7.6 mm 1.10 in27.9 mm
08:16 AM 67.6°F19.8°C 67.0°F19.4°C 98% Calm Calm 1.0 mph1.6 kmh 29.92 in1013.2 mb 0.01 in0.3 mm 0.00 in0.0 mm 1.09 in27.7 mm
08:14 AM 67.6°F19.8°C 67.0°F19.4°C 98% Calm Calm -- 29.91 in1012.9 mb 0.01 in0.3 mm 0.00 in0.0 mm 1.09 in27.7 mm
08:12 AM 67.7°F19.8°C 67.1°F19.5°C 98% Calm Calm 2.0 mph3.2 kmh 29.90 in1012.5 mb 0.01 in0.3 mm 0.00 in0.0 mm 1.09 in27.7 mm
08:10 AM 67.7°F19.8°C 67.1°F19.5°C 98% Calm Calm 1.0 mph1.6 kmh 29.91 in1012.9 mb 0.01 in0.3 mm 0.00 in0.0 mm 1.09 in27.7 mm
08:08 AM 67.7°F19.8°C 67.1°F19.5°C 98% Calm Calm -- 29.91 in1012.9 mb 0.01 in0.3 mm 0.00 in0.0 mm 1.09 in27.7 mm
08:06 AM 67.7°F19.8°C 67.1°F19.5°C 98% Calm Calm 2.0 mph3.2 kmh 29.91 in1012.9 mb 0.02 in0.5 mm 0.00 in0.0 mm 1.09 in27.7 mm
08:04 AM 67.7°F19.8°C 67.1°F19.5°C 98% Calm Calm 2.0 mph3.2 kmh 29.91 in1012.9 mb 0.02 in0.5 mm 0.00 in0.0 mm 1.09 in27.7 mm
08:02 AM 67.7°F19.8°C 67.1°F19.5°C 98% Calm Calm 2.0 mph3.2 kmh 29.91 in1012.9 mb 0.03 in0.8 mm 0.00 in0.0 mm 1.09 in27.7 mm
08:00 AM 67.7°F19.8°C 67.1°F19.5°C 98% Calm Calm 1.0 mph1.6 kmh 29.90 in1012.5 mb 0.03 in0.8 mm 0.00 in0.0 mm 1.09 in27.7 mm
07:58 AM 67.7°F19.8°C 67.1°F19.5°C 98% Calm Calm 1.0 mph1.6 kmh 29.91 in1012.9 mb 0.03 in0.8 mm 0.00 in0.0 mm 1.09 in27.7 mm
07:56 AM 67.7°F19.8°C 67.1°F19.5°C 98% Calm Calm -- 29.91 in1012.9 mb 0.04 in1.0 mm 0.00 in0.0 mm 1.09 in27.7 mm
07:54 AM 67.6°F19.8°C 67.0°F19.4°C 98% Calm Calm -- 29.91 in1012.9 mb 0.04 in1.0 mm 0.00 in0.0 mm 1.09 in27.7 mm
07:52 AM 67.6°F19.8°C 67.0°F19.4°C 98% 1.0 mph NNE1.6 kmh NNE 2.0 mph3.2 kmh 29.90 in1012.5 mb 0.05 in1.3 mm 0.00 in0.0 mm 1.09 in27.7 mm
07:50 AM 67.6°F19.8°C 67.0°F19.4°C 98% Calm Calm 2.0 mph3.2 kmh 29.90 in1012.5 mb 0.05 in1.3 mm 0.00 in0.0 mm 1.09 in27.7 mm
07:48 AM 67.6°F19.8°C 67.0°F19.4°C 98% Calm Calm 1.0 mph1.6 kmh 29.90 in1012.5 mb 0.05 in1.3 mm 0.00 in0.0 mm 1.09 in27.7 mm
07:46 AM 67.6°F19.8°C 67.0°F19.4°C 98% 1.0 mph N1.6 kmh N 2.0 mph3.2 kmh 29.90 in1012.5 mb 0.06 in1.5 mm 0.00 in0.0 mm 1.09 in27.7 mm
07:44 AM 67.6°F19.8°C 67.0°F19.4°C 98% 1.0 mph NNE1.6 kmh NNE 2.0 mph3.2 kmh 29.90 in1012.5 mb 0.06 in1.5 mm 0.00 in0.0 mm 1.09 in27.7 mm
07:42 AM 67.6°F19.8°C 67.0°F19.4°C 98% Calm Calm 2.0 mph3.2 kmh 29.90 in1012.5 mb 0.07 in1.8 mm 0.00 in0.0 mm 1.09 in27.7 mm
07:40 AM 67.6°F19.8°C 67.0°F19.4°C 98% Calm Calm 1.0 mph1.6 kmh 29.90 in1012.5 mb 0.07 in1.8 mm 0.00 in0.0 mm 1.09 in27.7 mm
07:38 AM 67.5°F19.7°C 66.9°F19.4°C 98% 1.0 mph NE1.6 kmh NE 1.0 mph1.6 kmh 29.90 in1012.5 mb 0.07 in1.8 mm 0.00 in0.0 mm 1.09 in27.7 mm
07:36 AM 67.5°F19.7°C 66.9°F19.4°C 98% Calm Calm 1.0 mph1.6 kmh 29.90 in1012.5 mb 0.10 in2.5 mm 0.00 in0.0 mm 1.09 in27.7 mm
07:34 AM 67.4°F19.7°C 66.8°F19.3°C 98% Calm Calm 1.0 mph1.6 kmh 29.90 in1012.5 mb 0.10 in2.5 mm 0.00 in0.0 mm 1.09 in27.7 mm
07:32 AM 67.4°F19.7°C 66.8°F19.3°C 98% 1.0 mph NE1.6 kmh NE 1.0 mph1.6 kmh 29.90 in1012.5 mb 0.31 in7.9 mm 0.00 in0.0 mm 1.09 in27.7 mm
07:30 AM 67.4°F19.7°C 66.8°F19.3°C 98% Calm Calm -- 29.90 in1012.5 mb 0.31 in7.9 mm 0.00 in0.0 mm 1.09 in27.7 mm
07:28 AM 67.3°F19.6°C 66.7°F19.3°C 98% Calm Calm -- 29.90 in1012.5 mb 0.31 in7.9 mm 0.00 in0.0 mm 1.09 in27.7 mm
07:26 AM 67.3°F19.6°C 66.7°F19.3°C 98% Calm Calm -- 29.91 in1012.9 mb 0.54 in13.7 mm 0.00 in0.0 mm 1.09 in27.7 mm
07:24 AM 67.3°F19.6°C 66.7°F19.3°C 98% Calm Calm -- 29.91 in1012.9 mb 0.54 in13.7 mm 0.00 in0.0 mm 1.09 in27.7 mm
07:22 AM 67.2°F19.6°C 66.6°F19.2°C 98% Calm Calm -- 29.91 in1012.9 mb 0.92 in23.4 mm 0.00 in0.0 mm 1.09 in27.7 mm
07:20 AM 67.2°F19.6°C 66.6°F19.2°C 98% Calm Calm -- 29.91 in1012.9 mb 0.92 in23.4 mm 0.00 in0.0 mm 1.09 in27.7 mm
07:18 AM 67.1°F19.5°C 66.2°F19.0°C 97% Calm Calm -- 29.90 in1012.5 mb 0.92 in23.4 mm 0.00 in0.0 mm 1.09 in27.7 mm
07:16 AM 67.1°F19.5°C 66.2°F19.0°C 97% Calm Calm -- 29.90 in1012.5 mb 1.09 in27.7 mm 0.00 in0.0 mm 1.09 in27.7 mm
07:14 AM 67.1°F19.5°C 66.2°F19.0°C 97% Calm Calm -- 29.90 in1012.5 mb 1.09 in27.7 mm 0.00 in0.0 mm 1.09 in27.7 mm
07:12 AM 67.1°F19.5°C 66.2°F19.0°C 97% Calm Calm -- 29.90 in1012.5 mb 1.09 in27.7 mm 0.00 in0.0 mm 1.09 in27.7 mm
07:10 AM 67.1°F19.5°C 66.2°F19.0°C 97% Calm Calm -- 29.90 in1012.5 mb 1.09 in27.7 mm 0.00 in0.0 mm 1.09 in27.7 mm
07:08 AM 67.0°F19.4°C 66.1°F18.9°C 97% Calm Calm -- 29.89 in1012.2 mb 1.09 in27.7 mm 0.00 in0.0 mm 1.09 in27.7 mm
07:06 AM 67.0°F19.4°C 66.1°F18.9°C 97% Calm Calm -- 29.88 in1011.9 mb 1.09 in27.7 mm 0.30 in7.6 mm 1.09 in27.7 mm
07:04 AM 67.0°F19.4°C 66.1°F18.9°C 97% Calm Calm -- 29.88 in1011.9 mb 1.08 in27.4 mm 0.00 in0.0 mm 1.08 in27.4 mm
07:02 AM 67.0°F19.4°C 66.1°F18.9°C 97% Calm Calm 3.0 mph4.8 kmh 29.87 in1011.5 mb 1.08 in27.4 mm 0.00 in0.0 mm 1.08 in27.4 mm
07:00 AM 66.9°F19.4°C 66.0°F18.9°C 97% Calm Calm 3.0 mph4.8 kmh 29.87 in1011.5 mb 1.08 in27.4 mm 0.01 in0.3 mm 1.08 in27.4 mm
06:58 AM 67.0°F19.4°C 66.1°F18.9°C 97% Calm Calm -- 29.87 in1011.5 mb 1.07 in27.2 mm 0.00 in0.0 mm 1.07 in27.2 mm
06:56 AM 67.0°F19.4°C 66.1°F18.9°C 97% Calm Calm 1.0 mph1.6 kmh 29.86 in1011.2 mb 1.07 in27.2 mm 0.00 in0.0 mm 1.07 in27.2 mm
06:54 AM 66.9°F19.4°C 66.0°F18.9°C 97% Calm Calm 1.0 mph1.6 kmh 29.86 in1011.2 mb 1.07 in27.2 mm 0.30 in7.6 mm 1.07 in27.2 mm
06:52 AM 66.9°F19.4°C 65.7°F18.7°C 96% Calm Calm 1.0 mph1.6 kmh 29.85 in1010.8 mb 1.06 in26.9 mm 0.00 in0.0 mm 1.06 in26.9 mm
06:50 AM 66.9°F19.4°C 65.7°F18.7°C 96% Calm Calm 1.0 mph1.6 kmh 29.86 in1011.2 mb 1.06 in26.9 mm 0.30 in7.6 mm 1.06 in26.9 mm
06:48 AM 67.0°F19.4°C 65.8°F18.8°C 96% Calm Calm 1.0 mph1.6 kmh 29.86 in1011.2 mb 1.05 in26.7 mm 0.30 in7.6 mm 1.05 in26.7 mm
06:46 AM 67.1°F19.5°C 65.9°F18.8°C 96% Calm Calm 3.0 mph4.8 kmh 29.86 in1011.2 mb 1.04 in26.4 mm 0.00 in0.0 mm 1.04 in26.4 mm
06:44 AM 67.1°F19.5°C 65.9°F18.8°C 96% Calm Calm 1.0 mph1.6 kmh 29.86 in1011.2 mb 1.04 in26.4 mm 0.00 in0.0 mm 1.04 in26.4 mm
06:42 AM 67.2°F19.6°C 66.0°F18.9°C 96% Calm Calm 3.0 mph4.8 kmh 29.86 in1011.2 mb 1.04 in26.4 mm 0.00 in0.0 mm 1.04 in26.4 mm
06:40 AM 67.2°F19.6°C 65.7°F18.7°C 95% 1.0 mph N1.6 kmh N 3.0 mph4.8 kmh 29.87 in1011.5 mb 1.04 in26.4 mm 0.30 in7.6 mm 1.04 in26.4 mm
06:38 AM 67.4°F19.7°C 65.9°F18.8°C 95% Calm Calm 1.0 mph1.6 kmh 29.87 in1011.5 mb 1.03 in26.2 mm 0.00 in0.0 mm 1.03 in26.2 mm
06:36 AM 67.6°F19.8°C 65.8°F18.8°C 94% 1.0 mph SW1.6 kmh SW 2.0 mph3.2 kmh 29.87 in1011.5 mb 1.03 in26.2 mm 0.00 in0.0 mm 1.03 in26.2 mm
06:34 AM 67.9°F19.9°C 66.1°F18.9°C 94% 1.0 mph WSW1.6 kmh WSW 2.0 mph3.2 kmh 29.86 in1011.2 mb 1.03 in26.2 mm 0.90 in22.9 mm 1.03 in26.2 mm
06:32 AM 68.2°F20.1°C 66.4°F19.1°C 94% Calm Calm 3.0 mph4.8 kmh 29.86 in1011.2 mb 1.00 in25.4 mm 1.50 in38.1 mm 1.00 in25.4 mm
06:30 AM 68.5°F20.3°C 66.4°F19.1°C 93% Calm Calm 3.0 mph4.8 kmh 29.85 in1010.8 mb 0.95 in24.1 mm 3.90 in99.1 mm 0.95 in24.1 mm
06:28 AM 69.0°F20.6°C 66.9°F19.4°C 93% 1.0 mph SW1.6 kmh SW 3.0 mph4.8 kmh 29.88 in1011.9 mb 0.82 in20.8 mm 2.40 in61.0 mm 0.82 in20.8 mm
06:26 AM 69.6°F20.9°C 67.2°F19.6°C 92% 1.0 mph W1.6 kmh W 4.0 mph6.4 kmh 29.88 in1011.9 mb 0.74 in18.8 mm 2.70 in68.6 mm 0.74 in18.8 mm
06:24 AM 70.3°F21.3°C 67.6°F19.8°C 91% Calm Calm 2.0 mph3.2 kmh 29.89 in1012.2 mb 0.65 in16.5 mm 2.70 in68.6 mm 0.65 in16.5 mm
06:22 AM 71.0°F21.7°C 67.9°F19.9°C 90% Calm Calm 6.0 mph9.7 kmh 29.89 in1012.2 mb 0.56 in14.2 mm 3.90 in99.1 mm 0.56 in14.2 mm
06:20 AM 71.6°F22.0°C 68.2°F20.1°C 89% Calm Calm 6.0 mph9.7 kmh 29.88 in1011.9 mb 0.43 in10.9 mm 5.10 in129.5 mm 0.43 in10.9 mm
06:18 AM 72.9°F22.7°C 68.8°F20.4°C 87% 3.0 mph NE4.8 kmh NE 6.0 mph9.7 kmh 29.88 in1011.9 mb 0.26 in6.6 mm 5.40 in137.2 mm 0.26 in6.6 mm
06:16 AM 73.9°F23.3°C 69.5°F20.8°C 86% 4.0 mph SW6.4 kmh SW 13.0 mph20.9 kmh 29.89 in1012.2 mb 0.08 in2.0 mm 2.40 in61.0 mm 0.08 in2.0 mm
06:14 AM 74.3°F23.5°C 68.8°F20.4°C 83% 1.0 mph WNW1.6 kmh WNW 10.0 mph16.1 kmh 29.87 in1011.5 mb 0.00 in0.0 mm 0.00 in0.0 mm 0.00 in0.0 mm
06:12 AM 74.8°F23.8°C 70.3°F21.3°C 86% 5.0 mph NE8.0 kmh NE 10.0 mph16.1 kmh 29.87 in1011.5 mb 0.00 in0.0 mm 0.00 in0.0 mm 0.00 in0.0 mm
06:10 AM 75.0°F23.9°C 70.5°F21.4°C 86% 7.0 mph N11.3 kmh N 7.0 mph11.3 kmh 29.81 in1009.5 mb 0.00 in0.0 mm 0.00 in0.0 mm 0.00 in0.0 mm
06:08 AM 75.0°F23.9°C 70.5°F21.4°C 86% 1.0 mph NW1.6 kmh NW 2.0 mph3.2 kmh 29.80 in1009.1 mb 0.00 in0.0 mm 0.00 in0.0 mm 0.00 in0.0 mm
06:06 AM 74.9°F23.8°C 70.1°F21.2°C 85% 4.0 mph SW6.4 kmh SW 9.0 mph14.5 kmh 29.78 in1008.5 mb 0.00 in0.0 mm 0.00 in0.0 mm 0.00 in0.0 mm
06:04 AM 74.9°F23.8°C 70.4°F21.3°C 86% 3.0 mph SSE4.8 kmh SSE 6.0 mph9.7 kmh 29.78 in1008.5 mb 0.00 in0.0 mm 0.00 in0.0 mm 0.00 in0.0 mm
06:02 AM 74.9°F23.8°C 70.4°F21.3°C 86% 3.0 mph SSW4.8 kmh SSW 8.0 mph12.9 kmh 29.79 in1008.8 mb 0.00 in0.0 mm 0.00 in0.0 mm 0.00 in0.0 mm
06:00 AM 74.9°F23.8°C 70.4°F21.3°C 86% 4.0 mph SSE6.4 kmh SSE 8.0 mph12.9 kmh 29.78 in1008.5 mb 0.00 in0.0 mm 0.00 in0.0 mm 0.00 in0.0 mm
05:58 AM 74.9°F23.8°C 70.4°F21.3°C 86% 2.0 mph WSW3.2 kmh WSW 3.0 mph4.8 kmh 29.79 in1008.8 mb 0.00 in0.0 mm 0.00 in0.0 mm 0.00 in0.0 mm
05:56 AM 74.8°F23.8°C 70.3°F21.3°C 86% 4.0 mph WSW6.4 kmh WSW 15.0 mph24.1 kmh 29.79 in1008.8 mb 0.00 in0.0 mm 0.00 in0.0 mm 0.00 in0.0 mm
05:54 AM 74.8°F23.8°C 70.3°F21.3°C 86% Calm Calm 10.0 mph16.1 kmh 29.80 in1009.1 mb 0.00 in0.0 mm 0.00 in0.0 mm 0.00 in0.0 mm
05:52 AM 74.8°F23.8°C 70.3°F21.3°C 86% 2.0 mph SSW3.2 kmh SSW 8.0 mph12.9 kmh 29.80 in1009.1 mb 0.00 in0.0 mm 0.00 in0.0 mm 0.00 in0.0 mm
05:50 AM 74.7°F23.7°C 70.2°F21.2°C 86% 5.0 mph S8.0 kmh S 8.0 mph12.9 kmh 29.80 in1009.1 mb 0.00 in0.0 mm 0.00 in0.0 mm 0.00 in0.0 mm
05:48 AM 74.7°F23.7°C 70.2°F21.2°C 86% 3.0 mph S4.8 kmh S 5.0 mph8.0 kmh 29.80 in1009.1 mb 0.00 in0.0 mm 0.00 in0.0 mm 0.00 in0.0 mm
05:46 AM 74.6°F23.7°C 70.1°F21.2°C 86% Calm Calm 7.0 mph11.3 kmh 29.81 in1009.5 mb 0.00 in0.0 mm 0.00 in0.0 mm 0.00 in0.0 mm
05:44 AM 74.5°F23.6°C 70.0°F21.1°C 86% 3.0 mph SSE4.8 kmh SSE 4.0 mph6.4 kmh 29.81 in1009.5 mb 0.00 in0.0 mm 0.00 in0.0 mm 0.00 in0.0 mm
05:42 AM 74.4°F23.6°C 69.9°F21.1°C 86% 2.0 mph SSE3.2 kmh SSE 6.0 mph9.7 kmh 29.81 in1009.5 mb 0.00 in0.0 mm 0.00 in0.0 mm 0.00 in0.0 mm
05:40 AM 74.4°F23.6°C 69.9°F21.1°C 86% 3.0 mph S4.8 kmh S 6.0 mph9.7 kmh 29.82 in1009.8 mb 0.00 in0.0 mm 0.00 in0.0 mm 0.00 in0.0 mm
05:38 AM 74.3°F23.5°C 70.2°F21.2°C 87% Calm Calm 1.0 mph1.6 kmh 29.82 in1009.8 mb 0.00 in0.0 mm 0.00 in0.0 mm 0.00 in0.0 mm
05:36 AM 74.3°F23.5°C 70.2°F21.2°C 87% Calm Calm 4.0 mph6.4 kmh 29.82 in1009.8 mb 0.00 in0.0 mm 0.00 in0.0 mm 0.00 in0.0 mm
05:34 AM 74.2°F23.4°C 70.1°F21.2°C 87% Calm Calm 4.0 mph6.4 kmh 29.82 in1009.8 mb 0.00 in0.0 mm 0.00 in0.0 mm 0.00 in0.0 mm
05:32 AM 74.1°F23.4°C 70.0°F21.1°C 87% Calm Calm 3.0 mph4.8 kmh 29.82 in1009.8 mb 0.00 in0.0 mm 0.00 in0.0 mm 0.00 in0.0 mm
05:30 AM 74.0°F23.3°C 69.9°F21.1°C 87% Calm Calm 2.0 mph3.2 kmh 29.82 in1009.8 mb 0.00 in0.0 mm 0.00 in0.0 mm 0.00 in0.0 mm
05:28 AM 74.0°F23.3°C 69.9°F21.1°C 87% 2.0 mph SW3.2 kmh SW 2.0 mph3.2 kmh 29.83 in1010.2 mb 0.00 in0.0 mm 0.00 in0.0 mm 0.00 in0.0 mm
05:26 AM 73.9°F23.3°C 70.1°F21.2°C 88% Calm Calm 3.0 mph4.8 kmh 29.83 in1010.2 mb 0.00 in0.0 mm 0.00 in0.0 mm 0.00 in0.0 mm
05:24 AM 73.8°F23.2°C 70.0°F21.1°C 88% Calm Calm 3.0 mph4.8 kmh 29.82 in1009.8 mb 0.00 in0.0 mm 0.00 in0.0 mm 0.00 in0.0 mm
05:22 AM 73.7°F23.2°C 69.9°F21.1°C 88% Calm Calm 8.0 mph12.9 kmh 29.82 in1009.8 mb 0.00 in0.0 mm 0.00 in0.0 mm 0.00 in0.0 mm
05:20 AM 73.5°F23.1°C 69.7°F20.9°C 88% 2.0 mph SW3.2 kmh SW 8.0 mph12.9 kmh 29.82 in1009.8 mb 0.00 in0.0 mm 0.00 in0.0 mm 0.00 in0.0 mm
05:18 AM 73.2°F22.9°C 69.8°F21.0°C 89% 2.0 mph SW3.2 kmh SW 4.0 mph6.4 kmh 29.83 in1010.2 mb 0.00 in0.0 mm 0.00 in0.0 mm 0.00 in0.0 mm
05:16 AM 73.0°F22.8°C 69.6°F20.9°C 89% 2.0 mph SW3.2 kmh SW 4.0 mph6.4 kmh 29.83 in1010.2 mb 0.00 in0.0 mm 0.00 in0.0 mm 0.00 in0.0 mm
05:14 AM 72.8°F22.7°C 69.7°F20.9°C 90% Calm Calm 4.0 mph6.4 kmh 29.82 in1009.8 mb 0.00 in0.0 mm 0.00 in0.0 mm 0.00 in0.0 mm
05:12 AM 72.6°F22.6°C 69.8°F21.0°C 91% 2.0 mph SW3.2 kmh SW 3.0 mph4.8 kmh 29.83 in1010.2 mb 0.00 in0.0 mm 0.00 in0.0 mm 0.00 in0.0 mm
05:10 AM 72.4°F22.4°C 69.6°F20.9°C 91% 3.0 mph SSW4.8 kmh SSW 3.0 mph4.8 kmh 29.82 in1009.8 mb 0.00 in0.0 mm 0.00 in0.0 mm 0.00 in0.0 mm
05:08 AM 72.2°F22.3°C 69.8°F21.0°C 92% Calm Calm -- 29.82 in1009.8 mb 0.00 in0.0 mm 0.00 in0.0 mm 0.00 in0.0 mm
05:06 AM 72.2°F22.3°C 69.8°F21.0°C 92% Calm Calm 2.0 mph3.2 kmh 29.82 in1009.8 mb 0.00 in0.0 mm 0.00 in0.0 mm 0.00 in0.0 mm
05:04 AM 72.2°F22.3°C 70.1°F21.2°C 93% 2.0 mph SSW3.2 kmh SSW 2.0 mph3.2 kmh 29.82 in1009.8 mb 0.00 in0.0 mm 0.00 in0.0 mm 0.00 in0.0 mm
05:02 AM 72.2°F22.3°C 70.1°F21.2°C 93% Calm Calm -- 29.83 in1010.2 mb 0.00 in0.0 mm 0.00 in0.0 mm 0.00 in0.0 mm
05:00 AM 72.2°F22.3°C 70.1°F21.2°C 93% Calm Calm -- 29.83 in1010.2 mb 0.00 in0.0 mm 0.00 in0.0 mm 0.00 in0.0 mm
04:58 AM 72.2°F22.3°C 70.1°F21.2°C 93% Calm Calm -- 29.83 in1010.2 mb 0.00 in0.0 mm 0.00 in0.0 mm 0.00 in0.0 mm
04:56 AM 72.2°F22.3°C 70.1°F21.2°C 93% Calm Calm -- 29.83 in1010.2 mb 0.00 in0.0 mm 0.00 in0.0 mm 0.00 in0.0 mm
04:54 AM 72.2°F22.3°C 70.1°F21.2°C 93% Calm Calm -- 29.83 in1010.2 mb 0.00 in0.0 mm 0.00 in0.0 mm 0.00 in0.0 mm
04:52 AM 72.2°F22.3°C 70.1°F21.2°C 93% Calm Calm -- 29.83 in1010.2 mb 0.00 in0.0 mm 0.00 in0.0 mm 0.00 in0.0 mm
04:50 AM 72.3°F22.4°C 70.2°F21.2°C 93% Calm Calm -- 29.84 in1010.5 mb 0.00 in0.0 mm 0.00 in0.0 mm 0.00 in0.0 mm
04:48 AM 72.3°F22.4°C 70.2°F21.2°C 93% Calm Calm -- 29.84 in1010.5 mb 0.00 in0.0 mm 0.00 in0.0 mm 0.00 in0.0 mm
04:46 AM 72.2°F22.3°C 70.1°F21.2°C 93% Calm Calm -- 29.84 in1010.5 mb 0.00 in0.0 mm 0.00 in0.0 mm 0.00 in0.0 mm
04:44 AM 72.2°F22.3°C 70.1°F21.2°C 93% Calm Calm -- 29.85 in1010.8 mb 0.00 in0.0 mm 0.00 in0.0 mm 0.00 in0.0 mm
04:42 AM 72.2°F22.3°C 70.1°F21.2°C 93% Calm Calm -- 29.85 in1010.8 mb 0.00 in0.0 mm 0.00 in0.0 mm 0.00 in0.0 mm
04:40 AM 72.2°F22.3°C 70.1°F21.2°C 93% Calm Calm -- 29.85 in1010.8 mb 0.00 in0.0 mm 0.00 in0.0 mm 0.00 in0.0 mm
04:38 AM 72.2°F22.3°C 70.1°F21.2°C 93% Calm Calm -- 29.85 in1010.8 mb 0.00 in0.0 mm 0.00 in0.0 mm 0.00 in0.0 mm
04:36 AM 72.2°F22.3°C 70.1°F21.2°C 93% Calm Calm -- 29.85 in1010.8 mb 0.00 in0.0 mm 0.00 in0.0 mm 0.00 in0.0 mm
04:34 AM 72.2°F22.3°C 70.4°F21.3°C 94% Calm Calm -- 29.85 in1010.8 mb 0.00 in0.0 mm 0.00 in0.0 mm 0.00 in0.0 mm
04:32 AM 72.2°F22.3°C 70.4°F21.3°C 94% Calm Calm -- 29.85 in1010.8 mb 0.00 in0.0 mm 0.00 in0.0 mm 0.00 in0.0 mm
04:30 AM 72.3°F22.4°C 70.5°F21.4°C 94% Calm Calm -- 29.86 in1011.2 mb 0.00 in0.0 mm 0.00 in0.0 mm 0.00 in0.0 mm
04:28 AM 72.3°F22.4°C 70.5°F21.4°C 94% Calm Calm -- 29.86 in1011.2 mb 0.00 in0.0 mm 0.00 in0.0 mm 0.00 in0.0 mm
04:26 AM 72.3°F22.4°C 70.5°F21.4°C 94% Calm Calm -- 29.86 in1011.2 mb 0.00 in0.0 mm 0.00 in0.0 mm 0.00 in0.0 mm
04:24 AM 72.3°F22.4°C 70.5°F21.4°C 94% Calm Calm -- 29.86 in1011.2 mb 0.00 in0.0 mm 0.00 in0.0 mm 0.00 in0.0 mm
04:22 AM 72.3°F22.4°C 70.5°F21.4°C 94% Calm Calm -- 29.86 in1011.2 mb 0.00 in0.0 mm 0.00 in0.0 mm 0.00 in0.0 mm
04:20 AM 72.3°F22.4°C 70.5°F21.4°C 94% Calm Calm -- 29.86 in1011.2 mb 0.00 in0.0 mm 0.00 in0.0 mm 0.00 in0.0 mm
04:18 AM 72.2°F22.3°C 70.4°F21.3°C 94% Calm Calm -- 29.86 in1011.2 mb 0.00 in0.0 mm 0.00 in0.0 mm 0.00 in0.0 mm
04:16 AM 72.2°F22.3°C 70.4°F21.3°C 94% Calm Calm -- 29.86 in1011.2 mb 0.00 in0.0 mm 0.00 in0.0 mm 0.00 in0.0 mm
04:14 AM 72.1°F22.3°C 70.3°F21.3°C 94% Calm Calm -- 29.86 in1011.2 mb 0.00 in0.0 mm 0.00 in0.0 mm 0.00 in0.0 mm
04:12 AM 72.1°F22.3°C 70.3°F21.3°C 94% Calm Calm -- 29.86 in1011.2 mb 0.00 in0.0 mm 0.00 in0.0 mm 0.00 in0.0 mm
04:10 AM 72.0°F22.2°C 70.2°F21.2°C 94% Calm Calm -- 29.86 in1011.2 mb 0.00 in0.0 mm 0.00 in0.0 mm 0.00 in0.0 mm
04:08 AM 72.0°F22.2°C 70.2°F21.2°C 94% Calm Calm -- 29.86 in1011.2 mb 0.00 in0.0 mm 0.00 in0.0 mm 0.00 in0.0 mm
04:06 AM 71.9°F22.2°C 70.1°F21.2°C 94% Calm Calm 2.0 mph3.2 kmh 29.86 in1011.2 mb 0.00 in0.0 mm 0.00 in0.0 mm 0.00 in0.0 mm
04:04 AM 71.9°F22.2°C 70.4°F21.3°C 95% Calm Calm -- 29.86 in1011.2 mb 0.00 in0.0 mm 0.00 in0.0 mm 0.00 in0.0 mm
04:02 AM 71.9°F22.2°C 70.4°F21.3°C 95% Calm Calm -- 29.86 in1011.2 mb 0.00 in0.0 mm 0.00 in0.0 mm 0.00 in0.0 mm
04:00 AM 71.9°F22.2°C 70.4°F21.3°C 95% Calm Calm -- 29.86 in1011.2 mb 0.00 in0.0 mm 0.00 in0.0 mm 0.00 in0.0 mm
03:58 AM 71.8°F22.1°C 70.3°F21.3°C 95% Calm Calm -- 29.86 in1011.2 mb 0.00 in0.0 mm 0.00 in0.0 mm 0.00 in0.0 mm
03:56 AM 71.8°F22.1°C 70.3°F21.3°C 95% Calm Calm -- 29.86 in1011.2 mb 0.00 in0.0 mm 0.00 in0.0 mm 0.00 in0.0 mm
03:54 AM 71.7°F22.1°C 70.2°F21.2°C 95% Calm Calm -- 29.86 in1011.2 mb 0.00 in0.0 mm 0.00 in0.0 mm 0.00 in0.0 mm
03:52 AM 71.6°F22.0°C 70.1°F21.2°C 95% Calm Calm -- 29.85 in1010.8 mb 0.00 in0.0 mm 0.00 in0.0 mm 0.00 in0.0 mm
03:50 AM 71.6°F22.0°C 70.1°F21.2°C 95% Calm Calm -- 29.86 in1011.2 mb 0.00 in0.0 mm 0.00 in0.0 mm 0.00 in0.0 mm
03:48 AM 71.6°F22.0°C 70.1°F21.2°C 95% Calm Calm -- 29.86 in1011.2 mb 0.00 in0.0 mm 0.00 in0.0 mm 0.00 in0.0 mm
03:46 AM 71.5°F21.9°C 70.0°F21.1°C 95% Calm Calm -- 29.86 in1011.2 mb 0.00 in0.0 mm 0.00 in0.0 mm 0.00 in0.0 mm
03:44 AM 71.5°F21.9°C 70.3°F21.3°C 96% Calm Calm -- 29.87 in1011.5 mb 0.00 in0.0 mm 0.00 in0.0 mm 0.00 in0.0 mm
03:42 AM 71.5°F21.9°C 70.3°F21.3°C 96% Calm Calm -- 29.87 in1011.5 mb 0.00 in0.0 mm 0.00 in0.0 mm 0.00 in0.0 mm
03:40 AM 71.5°F21.9°C 70.3°F21.3°C 96% Calm Calm -- 29.87 in1011.5 mb 0.00 in0.0 mm 0.00 in0.0 mm 0.00 in0.0 mm
03:38 AM 71.4°F21.9°C 70.2°F21.2°C 96% Calm Calm -- 29.87 in1011.5 mb 0.00 in0.0 mm 0.00 in0.0 mm 0.00 in0.0 mm
03:36 AM 71.4°F21.9°C 70.2°F21.2°C 96% Calm Calm -- 29.87 in1011.5 mb 0.00 in0.0 mm 0.00 in0.0 mm 0.00 in0.0 mm
03:34 AM 71.3°F21.8°C 69.8°F21.0°C 95% Calm Calm -- 29.86 in1011.2 mb 0.00 in0.0 mm 0.00 in0.0 mm 0.00 in0.0 mm
03:32 AM 71.3°F21.8°C 69.8°F21.0°C 95% Calm Calm -- 29.87 in1011.5 mb 0.00 in0.0 mm 0.00 in0.0 mm 0.00 in0.0 mm
03:30 AM 71.3°F21.8°C 69.8°F21.0°C 95% Calm Calm -- 29.87 in1011.5 mb 0.00 in0.0 mm 0.00 in0.0 mm 0.00 in0.0 mm
03:28 AM 71.3°F21.8°C 69.8°F21.0°C 95% Calm Calm -- 29.87 in1011.5 mb 0.00 in0.0 mm 0.00 in0.0 mm 0.00 in0.0 mm
03:26 AM 71.3°F21.8°C 69.8°F21.0°C 95% Calm Calm -- 29.87 in1011.5 mb 0.00 in0.0 mm 0.00 in0.0 mm 0.00 in0.0 mm
03:24 AM 71.2°F21.8°C 69.7°F20.9°C 95% Calm Calm -- 29.88 in1011.9 mb 0.00 in0.0 mm 0.00 in0.0 mm 0.00 in0.0 mm
03:22 AM 71.3°F21.8°C 69.8°F21.0°C 95% Calm Calm -- 29.88 in1011.9 mb 0.00 in0.0 mm 0.00 in0.0 mm 0.00 in0.0 mm
03:20 AM 71.2°F21.8°C 69.7°F20.9°C 95% Calm Calm -- 29.88 in1011.9 mb 0.00 in0.0 mm 0.00 in0.0 mm 0.00 in0.0 mm
03:18 AM 71.2°F21.8°C 69.7°F20.9°C 95% Calm Calm -- 29.88 in1011.9 mb 0.00 in0.0 mm 0.00 in0.0 mm 0.00 in0.0 mm
03:16 AM 71.2°F21.8°C 69.7°F20.9°C 95% Calm Calm -- 29.88 in1011.9 mb 0.00 in0.0 mm 0.00 in0.0 mm 0.00 in0.0 mm
03:14 AM 71.3°F21.8°C 69.8°F21.0°C 95% Calm Calm -- 29.88 in1011.9 mb 0.00 in0.0 mm 0.00 in0.0 mm 0.00 in0.0 mm
03:12 AM 71.3°F21.8°C 69.8°F21.0°C 95% Calm Calm -- 29.88 in1011.9 mb 0.00 in0.0 mm 0.00 in0.0 mm 0.00 in0.0 mm
03:10 AM 71.4°F21.9°C 69.9°F21.1°C 95% Calm Calm -- 29.88 in1011.9 mb 0.00 in0.0 mm 0.00 in0.0 mm 0.00 in0.0 mm
03:08 AM 71.4°F21.9°C 69.9°F21.1°C 95% Calm Calm -- 29.88 in1011.9 mb 0.00 in0.0 mm 0.00 in0.0 mm 0.00 in0.0 mm
03:06 AM 71.4°F21.9°C 69.9°F21.1°C 95% Calm Calm -- 29.88 in1011.9 mb 0.00 in0.0 mm 0.00 in0.0 mm 0.00 in0.0 mm
03:04 AM 71.5°F21.9°C 70.0°F21.1°C 95% Calm Calm -- 29.88 in1011.9 mb 0.00 in0.0 mm 0.00 in0.0 mm 0.00 in0.0 mm
03:02 AM 71.5°F21.9°C 70.0°F21.1°C 95% Calm Calm -- 29.88 in1011.9 mb 0.00 in0.0 mm 0.00 in0.0 mm 0.00 in0.0 mm
03:00 AM 71.6°F22.0°C 70.1°F21.2°C 95% Calm Calm -- 29.88 in1011.9 mb 0.00 in0.0 mm 0.00 in0.0 mm 0.00 in0.0 mm
02:58 AM 71.6°F22.0°C 70.1°F21.2°C 95% Calm Calm -- 29.88 in1011.9 mb 0.00 in0.0 mm 0.00 in0.0 mm 0.00 in0.0 mm
02:56 AM 71.7°F22.1°C 70.2°F21.2°C 95% Calm Calm -- 29.88 in1011.9 mb 0.00 in0.0 mm 0.00 in0.0 mm 0.00 in0.0 mm
02:54 AM 71.7°F22.1°C 70.2°F21.2°C 95% Calm Calm -- 29.89 in1012.2 mb 0.00 in0.0 mm 0.00 in0.0 mm 0.00 in0.0 mm
02:52 AM 71.8°F22.1°C 70.3°F21.3°C 95% Calm Calm -- 29.89 in1012.2 mb 0.00 in0.0 mm 0.00 in0.0 mm 0.00 in0.0 mm
02:50 AM 71.8°F22.1°C 70.3°F21.3°C 95% Calm Calm -- 29.89 in1012.2 mb 0.00 in0.0 mm 0.00 in0.0 mm 0.00 in0.0 mm
02:48 AM 71.8°F22.1°C 70.3°F21.3°C 95% Calm Calm -- 29.89 in1012.2 mb 0.00 in0.0 mm 0.00 in0.0 mm 0.00 in0.0 mm
02:46 AM 71.8°F22.1°C 70.3°F21.3°C 95% Calm Calm -- 29.89 in1012.2 mb 0.00 in0.0 mm 0.00 in0.0 mm 0.00 in0.0 mm
02:44 AM 71.8°F22.1°C 70.3°F21.3°C 95% Calm Calm -- 29.89 in1012.2 mb 0.00 in0.0 mm 0.00 in0.0 mm 0.00 in0.0 mm
02:42 AM 71.8°F22.1°C 70.3°F21.3°C 95% Calm Calm -- 29.89 in1012.2 mb 0.00 in0.0 mm 0.00 in0.0 mm 0.00 in0.0 mm
02:40 AM 71.7°F22.1°C 69.9°F21.1°C 94% Calm Calm -- 29.89 in1012.2 mb 0.00 in0.0 mm 0.00 in0.0 mm 0.00 in0.0 mm
02:38 AM 71.7°F22.1°C 69.9°F21.1°C 94% Calm Calm -- 29.89 in1012.2 mb 0.00 in0.0 mm 0.00 in0.0 mm 0.00 in0.0 mm
02:36 AM 71.7°F22.1°C 69.9°F21.1°C 94% Calm Calm -- 29.89 in1012.2 mb 0.00 in0.0 mm 0.00 in0.0 mm 0.00 in0.0 mm
02:34 AM 71.7°F22.1°C 70.2°F21.2°C 95% Calm Calm -- 29.89 in1012.2 mb 0.00 in0.0 mm 0.00 in0.0 mm 0.00 in0.0 mm
02:32 AM 71.7°F22.1°C 70.2°F21.2°C 95% Calm Calm -- 29.89 in1012.2 mb 0.00 in0.0 mm 0.00 in0.0 mm 0.00 in0.0 mm
02:30 AM 71.7°F22.1°C 70.2°F21.2°C 95% Calm Calm -- 29.90 in1012.5 mb 0.00 in0.0 mm 0.00 in0.0 mm 0.00 in0.0 mm
02:28 AM 71.6°F22.0°C 70.1°F21.2°C 95% Calm Calm -- 29.90 in1012.5 mb 0.00 in0.0 mm 0.00 in0.0 mm 0.00 in0.0 mm
02:26 AM 71.6°F22.0°C 70.1°F21.2°C 95% Calm Calm -- 29.91 in1012.9 mb 0.00 in0.0 mm 0.00 in0.0 mm 0.00 in0.0 mm
02:24 AM 71.5°F21.9°C 70.0°F21.1°C 95% Calm Calm -- 29.91 in1012.9 mb 0.00 in0.0 mm 0.00 in0.0 mm 0.00 in0.0 mm
02:22 AM 71.5°F21.9°C 70.0°F21.1°C 95% Calm Calm -- 29.91 in1012.9 mb 0.00 in0.0 mm 0.00 in0.0 mm 0.00 in0.0 mm
02:20 AM 71.5°F21.9°C 70.0°F21.1°C 95% Calm Calm -- 29.91 in1012.9 mb 0.00 in0.0 mm 0.00 in0.0 mm 0.00 in0.0 mm
02:18 AM 71.4°F21.9°C 69.9°F21.1°C 95% Calm Calm -- 29.91 in1012.9 mb 0.00 in0.0 mm 0.00 in0.0 mm 0.00 in0.0 mm
02:16 AM 71.4°F21.9°C 69.9°F21.1°C 95% Calm Calm -- 29.91 in1012.9 mb 0.00 in0.0 mm 0.00 in0.0 mm 0.00 in0.0 mm
02:14 AM 71.4°F21.9°C 69.9°F21.1°C 95% Calm Calm -- 29.92 in1013.2 mb 0.00 in0.0 mm 0.00 in0.0 mm 0.00 in0.0 mm
02:12 AM 71.4°F21.9°C 69.9°F21.1°C 95% Calm Calm -- 29.91 in1012.9 mb 0.00 in0.0 mm 0.00 in0.0 mm 0.00 in0.0 mm
02:10 AM 71.3°F21.8°C 69.8°F21.0°C 95% Calm Calm -- 29.91 in1012.9 mb 0.00 in0.0 mm 0.00 in0.0 mm 0.00 in0.0 mm
02:08 AM 71.3°F21.8°C 69.8°F21.0°C 95% Calm Calm -- 29.92 in1013.2 mb 0.00 in0.0 mm 0.00 in0.0 mm 0.00 in0.0 mm
02:06 AM 71.2°F21.8°C 69.7°F20.9°C 95% Calm Calm -- 29.92 in1013.2 mb 0.00 in0.0 mm 0.00 in0.0 mm 0.00 in0.0 mm
02:04 AM 71.2°F21.8°C 70.0°F21.1°C 96% Calm Calm -- 29.91 in1012.9 mb 0.00 in0.0 mm 0.00 in0.0 mm 0.00 in0.0 mm
02:02 AM 71.2°F21.8°C 70.0°F21.1°C 96% Calm Calm -- 29.91 in1012.9 mb 0.00 in0.0 mm 0.00 in0.0 mm 0.00 in0.0 mm
02:00 AM 71.2°F21.8°C 69.7°F20.9°C 95% Calm Calm -- 29.91 in1012.9 mb 0.00 in0.0 mm 0.00 in0.0 mm 0.00 in0.0 mm
01:58 AM 71.1°F21.7°C 69.9°F21.1°C 96% Calm Calm -- 29.92 in1013.2 mb 0.00 in0.0 mm 0.00 in0.0 mm 0.00 in0.0 mm
01:56 AM 71.1°F21.7°C 69.9°F21.1°C 96% Calm Calm -- 29.91 in1012.9 mb 0.00 in0.0 mm 0.00 in0.0 mm 0.00 in0.0 mm
01:54 AM 71.1°F21.7°C 69.6°F20.9°C 95% Calm Calm -- 29.92 in1013.2 mb 0.00 in0.0 mm 0.00 in0.0 mm 0.00 in0.0 mm
01:52 AM 71.1°F21.7°C 69.9°F21.1°C 96% Calm Calm -- 29.92 in1013.2 mb 0.00 in0.0 mm 0.00 in0.0 mm 0.00 in0.0 mm
01:50 AM 71.1°F21.7°C 69.9°F21.1°C 96% Calm Calm -- 29.92 in1013.2 mb 0.00 in0.0 mm 0.00 in0.0 mm 0.00 in0.0 mm
01:48 AM 71.0°F21.7°C 69.8°F21.0°C 96% Calm Calm -- 29.92 in1013.2 mb 0.00 in0.0 mm 0.00 in0.0 mm 0.00 in0.0 mm
01:46 AM 71.0°F21.7°C 69.8°F21.0°C 96% Calm Calm -- 29.92 in1013.2 mb 0.00 in0.0 mm 0.00 in0.0 mm 0.00 in0.0 mm
01:44 AM 71.0°F21.7°C 69.8°F21.0°C 96% Calm Calm -- 29.92 in1013.2 mb 0.00 in0.0 mm 0.00 in0.0 mm 0.00 in0.0 mm
01:42 AM 71.0°F21.7°C 69.8°F21.0°C 96% Calm Calm -- 29.92 in1013.2 mb 0.00 in0.0 mm 0.00 in0.0 mm 0.00 in0.0 mm
01:40 AM 70.9°F21.6°C 69.7°F20.9°C 96% Calm Calm -- 29.92 in1013.2 mb 0.00 in0.0 mm 0.00 in0.0 mm 0.00 in0.0 mm
01:38 AM 70.9°F21.6°C 69.7°F20.9°C 96% Calm Calm -- 29.92 in1013.2 mb 0.00 in0.0 mm 0.00 in0.0 mm 0.00 in0.0 mm
01:36 AM 70.9°F21.6°C 69.4°F20.8°C 95% Calm Calm -- 29.92 in1013.2 mb 0.00 in0.0 mm 0.00 in0.0 mm 0.00 in0.0 mm
01:34 AM 70.9°F21.6°C 69.4°F20.8°C 95% Calm Calm -- 29.92 in1013.2 mb 0.00 in0.0 mm 0.00 in0.0 mm 0.00 in0.0 mm
01:32 AM 70.9°F21.6°C 69.4°F20.8°C 95% Calm Calm -- 29.92 in1013.2 mb 0.00 in0.0 mm 0.00 in0.0 mm 0.00 in0.0 mm
01:30 AM 70.9°F21.6°C 69.4°F20.8°C 95% Calm Calm -- 29.92 in1013.2 mb 0.00 in0.0 mm 0.00 in0.0 mm 0.00 in0.0 mm
01:28 AM 70.9°F21.6°C 69.4°F20.8°C 95% Calm Calm -- 29.92 in1013.2 mb 0.00 in0.0 mm 0.00 in0.0 mm 0.00 in0.0 mm
01:26 AM 70.9°F21.6°C 69.4°F20.8°C 95% Calm Calm -- 29.92 in1013.2 mb 0.00 in0.0 mm 0.00 in0.0 mm 0.00 in0.0 mm
01:24 AM 70.9°F21.6°C 69.4°F20.8°C 95% Calm Calm -- 29.91 in1012.9 mb 0.00 in0.0 mm 0.00 in0.0 mm 0.00 in0.0 mm
01:22 AM 70.9°F21.6°C 69.4°F20.8°C 95% Calm Calm -- 29.92 in1013.2 mb 0.00 in0.0 mm 0.00 in0.0 mm 0.00 in0.0 mm
01:20 AM 70.9°F21.6°C 69.4°F20.8°C 95% Calm Calm -- 29.92 in1013.2 mb 0.00 in0.0 mm 0.00 in0.0 mm 0.00 in0.0 mm
01:18 AM 70.9°F21.6°C 69.4°F20.8°C 95% Calm Calm -- 29.92 in1013.2 mb 0.00 in0.0 mm 0.00 in0.0 mm 0.00 in0.0 mm
01:16 AM 70.8°F21.6°C 69.3°F20.7°C 95% Calm Calm -- 29.92 in1013.2 mb 0.00 in0.0 mm 0.00 in0.0 mm 0.00 in0.0 mm
01:14 AM 70.8°F21.6°C 69.3°F20.7°C 95% Calm Calm -- 29.92 in1013.2 mb 0.00 in0.0 mm 0.00 in0.0 mm 0.00 in0.0 mm
01:12 AM 70.8°F21.6°C 69.3°F20.7°C 95% Calm Calm -- 29.92 in1013.2 mb 0.00 in0.0 mm 0.00 in0.0 mm 0.00 in0.0 mm
01:10 AM 70.8°F21.6°C 69.3°F20.7°C 95% Calm Calm -- 29.91 in1012.9 mb 0.00 in0.0 mm 0.00 in0.0 mm 0.00 in0.0 mm
01:08 AM 70.9°F21.6°C 69.4°F20.8°C 95% Calm Calm -- 29.91 in1012.9 mb 0.00 in0.0 mm 0.00 in0.0 mm 0.00 in0.0 mm
01:06 AM 70.9°F21.6°C 69.4°F20.8°C 95% Calm Calm -- 29.91 in1012.9 mb 0.00 in0.0 mm 0.00 in0.0 mm 0.00 in0.0 mm
01:04 AM 71.0°F21.7°C 69.5°F20.8°C 95% Calm Calm -- 29.91 in1012.9 mb 0.00 in0.0 mm 0.00 in0.0 mm 0.00 in0.0 mm
01:02 AM 71.0°F21.7°C 69.5°F20.8°C 95% Calm Calm -- 29.91 in1012.9 mb 0.00 in0.0 mm 0.00 in0.0 mm 0.00 in0.0 mm
01:00 AM 71.0°F21.7°C 69.5°F20.8°C 95% Calm Calm -- 29.91 in1012.9 mb 0.00 in0.0 mm 0.00 in0.0 mm 0.00 in0.0 mm
12:58 AM 71.1°F21.7°C 69.6°F20.9°C 95% Calm Calm -- 29.91 in1012.9 mb 0.00 in0.0 mm 0.00 in0.0 mm 0.00 in0.0 mm
12:56 AM 71.1°F21.7°C 69.6°F20.9°C 95% Calm Calm -- 29.91 in1012.9 mb 0.00 in0.0 mm 0.00 in0.0 mm 0.00 in0.0 mm
12:54 AM 71.1°F21.7°C 69.6°F20.9°C 95% Calm Calm -- 29.91 in1012.9 mb 0.00 in0.0 mm 0.00 in0.0 mm 0.00 in0.0 mm
12:52 AM 71.1°F21.7°C 69.6°F20.9°C 95% Calm Calm -- 29.91 in1012.9 mb 0.00 in0.0 mm 0.00 in0.0 mm 0.00 in0.0 mm
12:50 AM 71.1°F21.7°C 69.6°F20.9°C 95% Calm Calm -- 29.91 in1012.9 mb 0.00 in0.0 mm 0.00 in0.0 mm 0.00 in0.0 mm
12:48 AM 71.1°F21.7°C 69.6°F20.9°C 95% Calm Calm -- 29.91 in1012.9 mb 0.00 in0.0 mm 0.00 in0.0 mm 0.00 in0.0 mm
12:46 AM 71.1°F21.7°C 69.6°F20.9°C 95% Calm Calm -- 29.91 in1012.9 mb 0.00 in0.0 mm 0.00 in0.0 mm 0.00 in0.0 mm
12:44 AM 71.1°F21.7°C 69.6°F20.9°C 95% Calm Calm -- 29.91 in1012.9 mb 0.00 in0.0 mm 0.00 in0.0 mm 0.00 in0.0 mm
12:42 AM 71.1°F21.7°C 69.6°F20.9°C 95% Calm Calm -- 29.92 in1013.2 mb 0.00 in0.0 mm 0.00 in0.0 mm 0.00 in0.0 mm
12:40 AM 71.1°F21.7°C 69.6°F20.9°C 95% Calm Calm -- 29.92 in1013.2 mb 0.00 in0.0 mm 0.00 in0.0 mm 0.00 in0.0 mm
12:38 AM 71.1°F21.7°C 69.6°F20.9°C 95% Calm Calm -- 29.92 in1013.2 mb 0.00 in0.0 mm 0.00 in0.0 mm 0.00 in0.0 mm
12:36 AM 71.1°F21.7°C 69.6°F20.9°C 95% Calm Calm -- 29.92 in1013.2 mb 0.00 in0.0 mm 0.00 in0.0 mm 0.00 in0.0 mm
12:34 AM 71.1°F21.7°C 69.6°F20.9°C 95% Calm Calm -- 29.92 in1013.2 mb 0.00 in0.0 mm 0.00 in0.0 mm 0.00 in0.0 mm
12:32 AM 71.1°F21.7°C 69.6°F20.9°C 95% Calm Calm -- 29.91 in1012.9 mb 0.00 in0.0 mm 0.00 in0.0 mm 0.00 in0.0 mm
12:30 AM 71.1°F21.7°C 69.6°F20.9°C 95% Calm Calm -- 29.92 in1013.2 mb 0.00 in0.0 mm 0.00 in0.0 mm 0.00 in0.0 mm
12:28 AM 71.2°F21.8°C 69.4°F20.8°C 94% Calm Calm -- 29.92 in1013.2 mb 0.00 in0.0 mm 0.00 in0.0 mm 0.00 in0.0 mm
12:26 AM 71.2°F21.8°C 69.7°F20.9°C 95% Calm Calm -- 29.92 in1013.2 mb 0.00 in0.0 mm 0.00 in0.0 mm 0.00 in0.0 mm
12:24 AM 71.2°F21.8°C 69.7°F20.9°C 95% Calm Calm -- 29.92 in1013.2 mb 0.00 in0.0 mm 0.00 in0.0 mm 0.00 in0.0 mm
12:22 AM 71.2°F21.8°C 69.4°F20.8°C 94% Calm Calm -- 29.92 in1013.2 mb 0.00 in0.0 mm 0.00 in0.0 mm 0.00 in0.0 mm
12:20 AM 71.2°F21.8°C 69.4°F20.8°C 94% Calm Calm -- 29.92 in1013.2 mb 0.00 in0.0 mm 0.00 in0.0 mm 0.00 in0.0 mm
12:18 AM 71.2°F21.8°C 69.4°F20.8°C 94% Calm Calm -- 29.92 in1013.2 mb 0.00 in0.0 mm 0.00 in0.0 mm 0.00 in0.0 mm
12:16 AM 71.3°F21.8°C 69.5°F20.8°C 94% Calm Calm -- 29.92 in1013.2 mb 0.00 in0.0 mm 0.00 in0.0 mm 0.00 in0.0 mm
12:14 AM 71.3°F21.8°C 69.5°F20.8°C 94% Calm Calm -- 29.92 in1013.2 mb 0.00 in0.0 mm 0.00 in0.0 mm 0.00 in0.0 mm
12:12 AM 71.3°F21.8°C 69.5°F20.8°C 94% Calm Calm -- 29.91 in1012.9 mb 0.00 in0.0 mm 0.00 in0.0 mm 0.00 in0.0 mm
12:10 AM 71.4°F21.9°C 69.6°F20.9°C 94% Calm Calm -- 29.91 in1012.9 mb 0.00 in0.0 mm 0.00 in0.0 mm 0.00 in0.0 mm
12:08 AM 71.4°F21.9°C 69.3°F20.7°C 93% Calm Calm -- 29.92 in1013.2 mb 0.00 in0.0 mm 0.00 in0.0 mm 0.00 in0.0 mm
12:06 AM 71.5°F21.9°C 69.4°F20.8°C 93% Calm Calm -- 29.92 in1013.2 mb 0.00 in0.0 mm 0.00 in0.0 mm 0.00 in0.0 mm
12:04 AM 71.6°F22.0°C 69.5°F20.8°C 93% Calm Calm -- 29.92 in1013.2 mb 0.00 in0.0 mm 0.00 in0.0 mm 0.00 in0.0 mm
12:02 AM 71.6°F22.0°C 69.5°F20.8°C 93% Calm Calm -- 29.92 in1013.2 mb 0.00 in0.0 mm 0.00 in0.0 mm 0.00 in0.0 mm
12:00 AM 71.7°F22.1°C 69.6°F20.9°C 93% Calm Calm -- 29.92 in1013.2 mb 0.00 in0.0 mm 0.00 in0.0 mm 0.00 in0.0 mm